Time;durP1;ratioP1;P1;durP2;ratioP2;P2;SDS_P1;SDS_P2;PMS_P1;PMS_P2;Temp;Humidity;BMP_temperature;BMP_pressure;BME280_temperature;BME280_humidity;BME280_pressure;Samples;Min_cycle;Max_cycle;Signal;HPM_P1;HPM_P2
2023/06/21 00:02:04;;;;;;;11.23;8.13;;;;;;;22.57;57.20;101142.31;5049918;28;20380;-74
2023/06/21 00:04:29;;;;;;;10.90;8.05;;;;;;;22.51;57.56;101135.19;5049820;28;20393;-75
2023/06/21 00:06:55;;;;;;;11.33;7.70;;;;;;;22.49;57.51;101137.28;5049311;28;20796;-75
2023/06/21 00:09:21;;;;;;;10.73;7.57;;;;;;;22.45;57.92;101142.34;5050020;28;20384;-75
2023/06/21 00:11:46;;;;;;;11.10;8.13;;;;;;;22.39;57.77;101139.78;5048992;28;20400;-74
2023/06/21 00:14:12;;;;;;;11.70;7.87;;;;;;;22.45;57.45;101142.34;5049588;28;20408;-74
2023/06/21 00:16:37;;;;;;;9.30;7.73;;;;;;;22.50;57.35;101145.13;5049180;28;20672;-74
2023/06/21 00:19:03;;;;;;;10.15;7.68;;;;;;;22.42;57.94;101147.38;5049041;28;20392;-74
2023/06/21 00:21:28;;;;;;;9.93;7.60;;;;;;;22.44;57.90;101165.03;5049372;28;20393;-75
2023/06/21 00:23:53;;;;;;;10.83;7.90;;;;;;;22.41;57.92;101161.97;5049290;28;20877;-75
2023/06/21 00:26:19;;;;;;;11.53;7.80;;;;;;;22.36;58.12;101159.97;5048484;28;21358;-74
2023/06/21 00:28:44;;;;;;;10.85;7.63;;;;;;;22.25;58.47;101158.91;5049088;28;20384;-74
2023/06/21 00:31:10;;;;;;;11.30;7.90;;;;;;;22.30;57.95;101155.53;5048483;28;20458;-74
2023/06/21 00:33:37;;;;;;;11.63;7.80;;;;;;;22.28;58.04;101153.06;5048741;28;20436;-74
2023/06/21 00:36:03;;;;;;;9.95;7.80;;;;;;;22.21;58.33;101157.75;5048563;28;20407;-74
2023/06/21 00:38:29;;;;;;;12.13;8.10;;;;;;;22.18;58.60;101152.00;5048416;28;20393;-74
2023/06/21 00:40:54;;;;;;;10.73;7.88;;;;;;;22.17;58.31;101147.66;5048258;28;20469;-74
2023/06/21 00:43:20;;;;;;;11.07;8.00;;;;;;;22.21;58.25;101146.13;5048516;28;20492;-75
2023/06/21 00:45:48;;;;;;;11.52;8.10;;;;;;;22.30;58.25;101142.03;5049043;28;20843;-75
2023/06/21 00:48:13;;;;;;;13.60;7.65;;;;;;;22.43;57.55;101140.94;5048788;28;20389;-76
2023/06/21 00:50:40;;;;;;;10.13;7.60;;;;;;;22.41;57.50;101141.16;5048273;28;20478;-74
2023/06/21 00:53:06;;;;;;;10.90;7.80;;;;;;;22.24;57.91;101138.38;5048242;28;20383;-74
2023/06/21 00:55:32;;;;;;;10.90;7.82;;;;;;;22.19;58.46;101146.34;5048628;28;20384;-74
2023/06/21 00:57:58;;;;;;;11.95;7.75;;;;;;;22.11;58.51;101142.16;5048128;28;20403;-74
2023/06/21 01:00:25;;;;;;;10.70;7.38;;;;;;;22.03;58.81;101149.78;5048400;28;21163;-74
2023/06/21 01:02:53;;;;;;;10.38;7.97;;;;;;;22.01;58.98;101146.50;5048554;28;20384;-75
2023/06/21 01:05:22;;;;;;;12.68;7.72;;;;;;;21.96;58.92;101153.41;5047630;28;20396;-75
2023/06/21 01:08:05;;;;;;;11.00;7.68;;;;;;;22.01;58.77;101158.09;5048517;28;20396;-75
2023/06/21 01:10:51;;;;;;;11.48;7.68;;;;;;;21.96;59.02;101153.41;5047990;28;20737;-75
2023/06/21 01:13:43;;;;;;;10.55;7.45;;;;;;;21.94;59.05;101149.31;5047989;28;20407;-75
2023/06/21 01:16:19;;;;;;;10.07;7.43;;;;;;;21.87;58.96;101148.59;5048442;28;20401;-75
2023/06/21 01:18:48;;;;;;;13.07;8.07;;;;;;;21.81;59.24;101154.94;5048136;28;20771;-75
2023/06/21 01:21:18;;;;;;;12.50;7.70;;;;;;;21.69;59.66;101154.94;5047915;28;20479;-75
2023/06/21 01:24:06;;;;;;;14.10;7.68;;;;;;;21.62;59.78;101149.63;5047517;28;20667;-74
2023/06/21 01:26:46;;;;;;;9.32;7.32;;;;;;;21.66;59.58;101148.13;5047616;28;20376;-74
2023/06/21 01:29:16;;;;;;;10.07;7.45;;;;;;;21.63;59.64;101142.38;5029545;28;20510;-75
2023/06/21 01:31:45;;;;;;;9.65;7.55;;;;;;;21.68;59.45;101145.19;5047521;28;20396;-75
2023/06/21 01:34:12;;;;;;;11.68;7.53;;;;;;;21.64;59.60;101131.34;5047510;28;20438;-75
2023/06/21 01:36:39;;;;;;;11.80;7.60;;;;;;;21.64;59.51;101131.34;5046476;28;20387;-74
2023/06/21 01:39:09;;;;;;;10.30;7.47;;;;;;;21.72;59.25;101131.00;5046743;28;20747;-74
2023/06/21 01:41:35;;;;;;;11.38;7.85;;;;;;;21.75;59.18;101135.09;5029927;28;20401;-74
2023/06/21 01:44:03;;;;;;;10.00;7.43;;;;;;;21.81;58.91;101136.06;5047729;28;20915;-75
2023/06/21 01:46:28;;;;;;;10.37;7.37;;;;;;;21.88;58.55;101139.47;5048342;28;20538;-74
2023/06/21 01:48:55;;;;;;;11.98;8.00;;;;;;;21.95;58.26;101145.56;5047465;28;20948;-75
2023/06/21 01:51:22;;;;;;;12.23;7.47;;;;;;;21.88;58.31;101134.88;5047403;28;20408;-74
2023/06/21 01:53:48;;;;;;;11.65;7.43;;;;;;;21.77;58.76;101139.22;5047889;28;20392;-74
2023/06/21 01:56:18;;;;;;;10.07;7.87;;;;;;;21.88;58.51;101144.88;5047967;28;20428;-75
2023/06/21 01:58:46;;;;;;;9.45;7.45;;;;;;;21.87;58.28;101148.59;5027720;28;20402;-75
2023/06/21 02:01:12;;;;;;;10.45;7.50;;;;;;;21.84;58.45;101144.50;5047551;28;20454;-75
2023/06/21 02:03:43;;;;;;;11.52;7.30;;;;;;;21.83;58.47;101150.94;5047514;28;20462;-76
2023/06/21 02:06:11;;;;;;;8.93;7.38;;;;;;;21.81;58.55;101150.38;5047617;28;20410;-74
2023/06/21 02:08:38;;;;;;;10.45;7.45;;;;;;;21.78;58.38;101156.22;5046871;28;20634;-73
2023/06/21 02:11:04;;;;;;;12.00;7.72;;;;;;;21.73;58.76;101156.94;5047521;28;20455;-74
2023/06/21 02:13:30;;;;;;;9.67;7.93;;;;;;;21.70;58.88;101153.88;5048305;28;20440;-74
2023/06/21 02:15:55;;;;;;;12.27;7.95;;;;;;;21.65;58.83;101154.56;5047945;28;20845;-74
2023/06/21 02:18:24;;;;;;;10.10;7.53;;;;;;;21.54;59.13;101153.50;5047013;28;20424;-74
2023/06/21 02:20:51;;;;;;;9.75;7.35;;;;;;;21.36;59.70;101157.06;5047477;28;20407;-75
2023/06/21 02:23:17;;;;;;;10.63;8.00;;;;;;;21.36;59.65;101165.16;5046229;28;20760;-75
2023/06/21 02:25:42;;;;;;;11.43;8.17;;;;;;;21.35;59.93;101163.50;5046658;28;20837;-75
2023/06/21 02:28:08;;;;;;;11.02;7.03;;;;;;;21.28;59.83;101162.78;5046521;28;20750;-75
2023/06/21 02:30:33;;;;;;;11.70;7.50;;;;;;;21.23;60.01;101167.22;5046465;28;20444;-75
2023/06/21 02:32:59;;;;;;;11.33;7.87;;;;;;;21.29;59.74;101167.13;5046181;28;20442;-75
2023/06/21 02:35:24;;;;;;;11.25;7.82;;;;;;;21.30;59.74;101163.41;5045658;28;21063;-75
2023/06/21 02:37:50;;;;;;;10.87;7.83;;;;;;;21.30;59.63;101166.09;5046562;28;20401;-75
2023/06/21 02:40:16;;;;;;;11.70;7.70;;;;;;;21.31;59.45;101165.03;5046909;28;20483;-76
2023/06/21 02:42:41;;;;;;;11.03;7.37;;;;;;;21.30;59.43;101157.16;5046316;28;20400;-75
2023/06/21 02:45:11;;;;;;;10.98;7.43;;;;;;;21.26;59.46;101153.28;5046293;28;20409;-75
2023/06/21 02:47:37;;;;;;;13.02;7.88;;;;;;;21.28;59.44;101161.97;5029279;28;20395;-76
2023/06/21 02:50:03;;;;;;;9.45;7.60;;;;;;;21.30;59.55;101167.94;5046026;28;20384;-75
2023/06/21 02:52:30;;;;;;;11.40;7.63;;;;;;;21.27;59.56;101169.25;5046426;28;20389;-76
2023/06/21 02:54:55;;;;;;;12.13;7.75;;;;;;;21.29;59.56;101163.63;5046889;28;20522;-76
2023/06/21 02:57:21;;;;;;;9.27;7.67;;;;;;;21.29;59.48;101169.84;5046126;28;20908;-75
2023/06/21 02:59:49;;;;;;;11.30;7.80;;;;;;;21.29;59.45;101166.31;5046575;28;20872;-75
2023/06/21 03:02:16;;;;;;;13.02;8.10;;;;;;;21.33;59.38;101171.00;5046374;28;20979;-75
2023/06/21 03:04:42;;;;;;;15.50;8.25;;;;;;;21.37;59.15;101166.81;5028646;28;20401;-75
2023/06/21 03:07:08;;;;;;;9.63;7.80;;;;;;;21.49;58.74;101168.75;5046291;28;20447;-75
2023/06/21 03:09:34;;;;;;;9.13;7.57;;;;;;;21.57;58.60;101173.78;5046562;28;20476;-75
2023/06/21 03:12:03;;;;;;;11.93;7.88;;;;;;;21.70;58.38;101172.78;5046280;28;20529;-75
2023/06/21 03:14:28;;;;;;;12.63;8.63;;;;;;;21.91;57.72;101171.38;5046755;28;20387;-76
2023/06/21 03:16:54;;;;;;;11.00;7.70;;;;;;;22.10;57.36;101170.19;5046174;28;20404;-75
2023/06/21 03:19:19;;;;;;;10.60;8.00;;;;;;;22.17;56.94;101180.88;5029073;28;20499;-75
2023/06/21 03:21:45;;;;;;;8.38;7.30;;;;;;;22.19;56.96;101186.03;5046783;28;20381;-76
2023/06/21 03:24:11;;;;;;;8.43;7.53;;;;;;;22.17;57.09;101185.47;5048610;28;20377;-75
2023/06/21 03:26:36;;;;;;;11.20;7.70;;;;;;;22.30;56.62;101188.75;5048611;28;20399;-75
2023/06/21 03:29:06;;;;;;;12.33;7.77;;;;;;;22.33;56.58;101191.00;5046266;28;20427;-75
2023/06/21 03:31:32;;;;;;;13.13;8.25;;;;;;;22.41;56.42;101203.31;5044580;28;20499;-76
2023/06/21 03:33:57;;;;;;;11.47;8.47;;;;;;;22.49;56.02;101202.09;5045096;28;20385;-76
2023/06/21 03:36:22;;;;;;;13.77;8.20;;;;;;;22.53;56.14;101204.09;5026458;28;20453;-76
2023/06/21 03:38:48;;;;;;;14.52;9.13;;;;;;;22.55;55.91;101209.28;5044329;28;20517;-75
2023/06/21 03:41:14;;;;;;;16.47;8.37;;;;;;;22.67;55.64;101212.78;5045025;28;20450;-75
2023/06/21 03:43:39;;;;;;;12.00;8.20;;;;;;;22.70;55.53;101214.19;5044621;28;20876;-75
2023/06/21 03:46:04;;;;;;;10.50;7.90;;;;;;;22.67;55.85;101217.34;5046566;28;20392;-76
2023/06/21 03:48:30;;;;;;;11.63;7.73;;;;;;;22.66;55.79;101218.44;5048741;28;20380;-76
2023/06/21 03:50:55;;;;;;;12.50;7.77;;;;;;;22.78;55.46;101216.53;5047776;28;20806;-76
2023/06/21 03:53:21;;;;;;;12.27;8.55;;;;;;;22.83;55.64;101229.28;5047379;28;21267;-75
2023/06/21 03:55:46;;;;;;;11.03;8.63;;;;;;;22.81;55.43;101221.44;5047638;28;20744;-75
2023/06/21 03:58:12;;;;;;;13.83;8.63;;;;;;;22.85;55.31;101219.06;5047979;28;20410;-75
2023/06/21 04:00:38;;;;;;;11.38;8.13;;;;;;;23.02;54.87;101219.16;5047526;28;20415;-75
2023/06/21 04:03:03;;;;;;;11.20;7.60;;;;;;;22.97;55.32;101219.84;5046770;28;20745;-75
2023/06/21 04:05:29;;;;;;;11.05;7.93;;;;;;;23.04;55.16;101219.72;5047383;28;20427;-76
2023/06/21 04:07:54;;;;;;;12.03;8.27;;;;;;;23.13;55.05;101214.78;5049162;28;20873;-75
2023/06/21 04:10:20;;;;;;;13.07;7.63;;;;;;;23.06;54.85;101214.91;5030184;28;20752;-76
2023/06/21 04:12:45;;;;;;;10.10;7.90;;;;;;;23.16;54.90;101212.41;5031530;28;20968;-76
2023/06/21 04:15:11;;;;;;;12.02;8.32;;;;;;;23.29;54.70;101222.13;5048745;28;20423;-76
2023/06/21 04:17:37;;;;;;;11.83;8.77;;;;;;;23.46;54.01;101224.84;5046849;28;20487;-76
2023/06/21 04:20:11;;;;;;;14.48;8.25;;;;;;;23.59;54.02;101221.84;5029440;28;20416;-77
2023/06/21 04:22:41;;;;;;;11.57;8.55;;;;;;;23.72;53.75;101215.28;5048035;28;20476;-75
2023/06/21 04:25:11;;;;;;;17.65;9.18;;;;;;;23.82;53.54;101223.63;5048182;28;20412;-75
2023/06/21 04:27:39;;;;;;;10.38;8.15;;;;;;;23.83;53.37;101240.66;5048222;28;20428;-75
2023/06/21 04:30:09;;;;;;;11.27;7.93;;;;;;;23.83;53.33;101238.78;5048030;28;20444;-75
2023/06/21 04:32:34;;;;;;;12.65;7.70;;;;;;;23.88;53.00;101238.06;5047597;28;20388;-75
2023/06/21 04:35:00;;;;;;;12.05;7.65;;;;;;;24.06;53.07;101245.09;5047722;28;20478;-75
2023/06/21 04:37:26;;;;;;;12.33;8.13;;;;;;;24.29;52.55;101240.53;5047168;28;20394;-74
2023/06/21 04:39:52;;;;;;;10.20;7.72;;;;;;;24.45;51.92;101250.53;5048023;28;20439;-74
2023/06/21 04:42:21;;;;;;;12.50;7.57;;;;;;;24.55;51.75;101253.41;5046650;28;20384;-74
2023/06/21 04:44:50;;;;;;;11.17;7.47;;;;;;;24.57;51.46;101250.47;5048759;28;20403;-75
2023/06/21 04:47:16;;;;;;;9.63;7.15;;;;;;;24.55;51.28;101248.00;5048529;28;20719;-74
2023/06/21 04:49:43;;;;;;;10.93;7.83;;;;;;;24.69;51.30;101244.94;5047435;28;20396;-75
2023/06/21 04:52:09;;;;;;;9.38;7.10;;;;;;;24.77;51.01;101247.19;5047704;28;20793;-75
2023/06/21 04:54:36;;;;;;;8.65;7.03;;;;;;;24.71;51.08;101251.75;5048771;28;20446;-77
2023/06/21 04:57:04;;;;;;;11.07;7.28;;;;;;;24.86;50.29;101253.00;5047264;28;20750;-75
2023/06/21 04:59:30;;;;;;;12.07;7.60;;;;;;;24.87;50.64;101244.63;5047703;28;20384;-75
2023/06/21 05:01:56;;;;;;;13.95;7.72;;;;;;;25.00;50.46;101246.13;5047459;28;20420;-75
2023/06/21 05:04:21;;;;;;;10.15;8.00;;;;;;;25.24;50.22;101243.13;5048386;28;20380;-74
2023/06/21 05:06:47;;;;;;;12.63;7.47;;;;;;;25.12;50.08;101243.25;5048527;28;20395;-74
2023/06/21 05:09:12;;;;;;;11.90;7.80;;;;;;;25.13;49.88;101239.47;5048463;28;20384;-74
2023/06/21 05:11:38;;;;;;;13.07;7.63;;;;;;;25.00;50.22;101237.97;5049682;28;20751;-74
2023/06/21 05:14:04;;;;;;;8.85;7.10;;;;;;;24.78;50.87;101246.94;5048321;28;20376;-76
2023/06/21 05:16:29;;;;;;;9.93;7.23;;;;;;;24.78;51.30;101243.44;5047861;28;20737;-76
2023/06/21 05:18:55;;;;;;;9.02;7.43;;;;;;;24.65;51.45;101235.66;5048361;28;20419;-75
2023/06/21 05:21:20;;;;;;;14.02;8.80;;;;;;;24.83;51.00;101237.22;5048589;28;20381;-75
2023/06/21 05:23:45;;;;;;;9.77;8.30;;;;;;;25.09;50.45;101247.31;5047899;28;20388;-75
2023/06/21 05:26:11;;;;;;;14.87;7.70;;;;;;;25.21;50.30;101241.75;5048164;28;20779;-76
2023/06/21 05:28:36;;;;;;;8.90;7.50;;;;;;;25.16;50.22;101242.50;5048067;28;21109;-75
2023/06/21 05:31:02;;;;;;;9.83;7.37;;;;;;;25.25;49.87;101229.34;5047889;28;20419;-75
2023/06/21 05:33:27;;;;;;;10.57;7.20;;;;;;;25.22;50.17;101237.94;5048386;28;20447;-76
2023/06/21 05:35:53;;;;;;;10.70;7.53;;;;;;;25.18;50.53;101234.13;5048237;28;20373;-76
2023/06/21 05:38:18;;;;;;;8.60;7.60;;;;;;;25.11;50.77;101228.88;5049579;28;20377;-77
2023/06/21 05:40:44;;;;;;;9.17;7.63;;;;;;;25.25;50.63;101232.03;5048402;28;20398;-76
2023/06/21 05:43:09;;;;;;;9.97;8.00;;;;;;;25.63;49.91;101226.72;5049344;28;20395;-75
2023/06/21 05:45:38;;;;;;;12.52;8.00;;;;;;;25.76;49.56;101232.50;5048634;28;20675;-76
2023/06/21 05:48:04;;;;;;;11.85;8.20;;;;;;;25.72;49.86;101223.25;5047907;28;20389;-76
2023/06/21 05:50:30;;;;;;;9.33;7.27;;;;;;;25.76;48.83;101227.06;5048412;28;20777;-76
2023/06/21 05:52:57;;;;;;;11.80;7.87;;;;;;;25.71;48.84;101224.34;5050531;28;20384;-75
2023/06/21 05:55:22;;;;;;;8.68;7.70;;;;;;;25.76;48.03;101223.53;5048777;28;20384;-76
2023/06/21 05:57:47;;;;;;;10.30;8.07;;;;;;;25.84;48.25;101231.22;5049189;28;20415;-75
2023/06/21 06:00:15;;;;;;;11.10;7.77;;;;;;;26.00;48.35;101226.75;5049174;28;20403;-76
2023/06/21 06:02:41;;;;;;;10.03;7.93;;;;;;;26.06;47.92;101238.47;5048320;28;20498;-76
2023/06/21 06:05:06;;;;;;;10.60;6.90;;;;;;;26.35;47.30;101236.22;5030085;28;20385;-76
2023/06/21 06:07:32;;;;;;;10.30;7.60;;;;;;;26.48;46.95;101233.00;5046964;28;20416;-75
2023/06/21 06:09:57;;;;;;;10.17;7.33;;;;;;;26.37;46.92;101230.50;5047506;28;20392;-76
2023/06/21 06:12:23;;;;;;;9.80;7.70;;;;;;;26.42;46.96;101231.34;5047309;28;20392;-77
2023/06/21 06:14:49;;;;;;;10.38;7.78;;;;;;;26.59;47.08;101235.78;5046900;28;20924;-75
2023/06/21 06:17:16;;;;;;;9.95;7.30;;;;;;;26.39;47.34;101240.03;5047661;28;20656;-76
2023/06/21 06:19:42;;;;;;;8.83;7.53;;;;;;;26.52;46.82;101247.72;5047207;28;20876;-76
2023/06/21 06:22:07;;;;;;;9.77;7.88;;;;;;;26.17;47.35;101237.47;5029375;28;20400;-76
2023/06/21 06:24:32;;;;;;;10.30;7.80;;;;;;;26.32;47.57;101234.81;5047753;28;20481;-76
2023/06/21 06:26:58;;;;;;;9.97;8.03;;;;;;;26.80;47.16;101242.16;5029953;28;20733;-76
2023/06/21 06:29:24;;;;;;;10.80;8.23;;;;;;;27.07;46.81;101248.25;5047258;28;20869;-75
2023/06/21 06:31:51;;;;;;;9.48;7.90;;;;;;;27.29;45.90;101246.44;5047532;28;20932;-77
2023/06/21 06:34:16;;;;;;;9.88;7.70;;;;;;;27.22;45.63;101254.81;5047180;28;20381;-75
2023/06/21 06:36:42;;;;;;;8.02;7.22;;;;;;;26.87;45.29;101251.72;5047168;28;20426;-76
2023/06/21 06:39:08;;;;;;;9.38;7.60;;;;;;;26.86;46.00;101247.34;5047230;28;20904;-75
2023/06/21 06:41:33;;;;;;;8.07;7.10;;;;;;;27.09;45.46;101240.63;5046817;28;20514;-75
2023/06/21 06:43:59;;;;;;;8.70;7.40;;;;;;;27.44;45.21;101239.09;5046399;28;20384;-76
2023/06/21 06:46:24;;;;;;;7.95;7.25;;;;;;;27.63;45.05;101241.28;5047797;28;20407;-75
2023/06/21 06:48:50;;;;;;;7.97;6.60;;;;;;;27.91;44.30;101239.13;5048150;28;20384;-77
2023/06/21 06:51:15;;;;;;;12.77;7.40;;;;;;;28.18;43.33;101238.81;5047316;28;20746;-76
2023/06/21 06:53:42;;;;;;;7.67;6.73;;;;;;;27.95;43.34;101232.88;5046503;28;20459;-76
2023/06/21 06:56:07;;;;;;;9.05;7.03;;;;;;;28.25;43.62;101228.44;5047021;28;20821;-76
2023/06/21 06:58:35;;;;;;;10.80;7.18;;;;;;;28.47;43.32;101225.38;5046368;28;20393;-76
2023/06/21 07:01:03;;;;;;;7.05;6.10;;;;;;;28.62;43.00;101227.25;5046635;28;20726;-77
2023/06/21 07:03:29;;;;;;;8.75;6.95;;;;;;;28.53;42.82;101223.47;5047391;28;20403;-76
2023/06/21 07:05:55;;;;;;;7.27;6.63;;;;;;;28.57;42.92;101222.63;5047311;28;20777;-77
2023/06/21 07:08:20;;;;;;;7.45;6.40;;;;;;;28.78;42.38;101217.91;5047027;28;20404;-76
2023/06/21 07:10:46;;;;;;;7.22;6.53;;;;;;;29.09;42.52;101216.94;5048431;28;20450;-76
2023/06/21 07:13:11;;;;;;;8.07;6.87;;;;;;;29.29;41.97;101213.28;5048813;28;20470;-76
2023/06/21 07:15:37;;;;;;;7.60;6.67;;;;;;;29.23;41.91;101212.50;5048254;28;20380;-75
2023/06/21 07:18:02;;;;;;;8.07;6.73;;;;;;;29.31;41.76;101205.63;5047683;28;20412;-75
2023/06/21 07:20:28;;;;;;;9.32;6.20;;;;;;;29.27;41.17;101208.09;5048429;28;20373;-77
2023/06/21 07:22:53;;;;;;;6.93;6.22;;;;;;;29.35;41.03;101215.69;5052248;28;20483;-77
2023/06/21 07:25:19;;;;;;;7.05;5.85;;;;;;;29.52;41.01;101223.47;5052629;28;20385;-77
2023/06/21 07:27:44;;;;;;;7.77;5.90;;;;;;;29.78;40.22;101219.75;5050806;28;20388;-77
2023/06/21 07:30:10;;;;;;;7.93;6.20;;;;;;;29.75;40.07;101226.59;5052563;28;20380;-77
2023/06/21 07:32:36;;;;;;;7.78;6.20;;;;;;;29.72;39.98;101227.94;5051394;28;20867;-76
2023/06/21 07:35:03;;;;;;;7.00;5.78;;;;;;;29.70;40.09;101216.50;5050467;28;20389;-76
2023/06/21 07:37:30;;;;;;;6.90;5.88;;;;;;;29.86;40.01;101222.69;5050235;28;20399;-76
2023/06/21 07:39:56;;;;;;;8.73;6.10;;;;;;;30.02;39.21;101215.16;5049590;28;20385;-76
2023/06/21 07:42:25;;;;;;;9.98;5.85;;;;;;;30.24;38.21;101220.09;5051070;28;20407;-76
2023/06/21 07:44:54;;;;;;;5.75;5.25;;;;;;;29.98;38.24;101214.09;5051741;28;20880;-75
2023/06/21 07:47:22;;;;;;;5.93;5.33;;;;;;;30.12;38.66;101206.00;5051663;28;20435;-75
2023/06/21 07:49:47;;;;;;;6.85;6.15;;;;;;;29.98;38.75;101214.09;5053859;28;20403;-75
2023/06/21 07:52:14;;;;;;;7.82;5.40;;;;;;;29.95;38.98;101214.66;5049979;28;20400;-75
2023/06/21 07:54:39;;;;;;;8.70;5.90;;;;;;;30.31;38.66;101206.09;5048314;28;20888;-75
2023/06/21 07:57:05;;;;;;;6.43;5.60;;;;;;;30.27;38.40;101211.31;5051311;28;20380;-76
2023/06/21 07:59:33;;;;;;;6.00;5.40;;;;;;;30.54;37.85;101215.41;5051583;28;20414;-75
2023/06/21 08:01:58;;;;;;;6.40;5.75;;;;;;;30.73;37.99;101220.91;5051197;28;20733;-75
2023/06/21 08:04:24;;;;;;;7.50;5.70;;;;;;;30.47;37.88;101215.75;5050890;28;20865;-76
2023/06/21 08:06:49;;;;;;;8.70;6.10;;;;;;;30.54;37.55;101207.22;5051458;28;20767;-75
2023/06/21 08:09:15;;;;;;;7.10;5.40;;;;;;;30.46;37.66;101202.38;5050833;28;20468;-76
2023/06/21 08:11:41;;;;;;;8.07;5.67;;;;;;;30.75;37.48;101207.75;5051511;28;20404;-76
2023/06/21 08:14:07;;;;;;;8.07;5.78;;;;;;;30.97;36.77;101203.63;5051466;28;20377;-76
2023/06/21 08:16:32;;;;;;;6.10;5.00;;;;;;;30.77;36.29;101202.78;5050678;28;20807;-76
2023/06/21 08:18:57;;;;;;;5.50;5.00;;;;;;;30.44;36.58;101202.66;5050859;28;20396;-77
2023/06/21 08:21:23;;;;;;;6.73;4.90;;;;;;;30.73;36.57;101203.69;5050414;28;20404;-75
2023/06/21 08:23:48;;;;;;;5.45;4.93;;;;;;;30.75;36.60;101198.72;5051012;28;20421;-77
2023/06/21 08:26:14;;;;;;;6.72;5.32;;;;;;;30.58;36.49;101210.97;5050105;28;20446;-76
2023/06/21 08:28:39;;;;;;;5.95;5.10;;;;;;;30.76;36.64;101203.91;5049916;28;20753;-75
2023/06/21 08:31:05;;;;;;;5.40;4.90;;;;;;;31.05;36.24;101212.00;5050545;28;21020;-77
2023/06/21 08:33:30;;;;;;;7.17;5.30;;;;;;;31.09;36.75;101214.16;5048112;28;20396;-76
2023/06/21 08:35:56;;;;;;;7.10;5.30;;;;;;;31.14;36.53;101208.63;5050239;28;20396;-78
2023/06/21 08:38:21;;;;;;;6.57;5.03;;;;;;;31.21;36.14;101212.59;5050003;28;20400;-76
2023/06/21 08:40:47;;;;;;;7.20;4.70;;;;;;;31.12;35.61;101219.06;5050972;28;20468;-77
2023/06/21 08:43:13;;;;;;;5.63;4.93;;;;;;;30.82;35.52;101216.41;5053938;28;20380;-76
2023/06/21 08:45:39;;;;;;;6.78;4.80;;;;;;;31.20;35.12;101219.16;5051159;28;20403;-76
2023/06/21 08:48:06;;;;;;;6.03;4.60;;;;;;;31.24;35.47;101216.66;5050762;28;20891;-77
2023/06/21 08:50:36;;;;;;;5.50;4.43;;;;;;;31.71;35.07;101212.09;5051633;28;20377;-75
2023/06/21 08:53:06;;;;;;;5.90;5.30;;;;;;;31.71;34.68;101200.31;5051724;28;20385;-76
2023/06/21 08:55:37;;;;;;;5.17;4.67;;;;;;;31.59;34.48;101201.59;5052754;28;20880;-76
2023/06/21 08:58:14;;;;;;;5.80;4.88;;;;;;;31.56;33.40;101195.91;5050616;28;20384;-76
2023/06/21 09:00:44;;;;;;;5.20;4.30;;;;;;;31.74;32.40;101197.78;5050409;28;20419;-75
2023/06/21 09:03:23;;;;;;;5.32;3.92;;;;;;;31.50;30.17;101192.44;5049568;28;20420;-75
2023/06/21 09:05:59;;;;;;;5.67;3.70;;;;;;;31.34;29.83;101189.09;5049059;28;20762;-75
2023/06/21 09:08:24;;;;;;;5.85;4.00;;;;;;;31.47;30.04;101187.53;5041346;28;20413;-76
2023/06/21 09:10:52;;;;;;;9.20;4.07;;;;;;;31.39;30.47;101188.22;5044406;28;20404;-75
2023/06/21 09:13:19;;;;;;;4.28;3.65;;;;;;;31.11;29.81;101200.97;5050637;28;20388;-75
2023/06/21 09:15:47;;;;;;;5.63;3.78;;;;;;;31.08;30.95;101196.09;5042547;28;20446;-76
2023/06/21 09:18:13;;;;;;;5.03;3.75;;;;;;;31.48;30.80;101200.16;5049083;28;20892;-77
2023/06/21 09:20:39;;;;;;;5.20;3.90;;;;;;;31.49;31.69;101198.22;5029064;28;20416;-76
2023/06/21 09:23:05;;;;;;;4.63;4.15;;;;;;;31.62;31.70;101194.69;5041993;28;20405;-76
2023/06/21 09:25:30;;;;;;;4.85;4.38;;;;;;;31.66;32.09;101203.13;5049287;28;20980;-75
2023/06/21 09:27:56;;;;;;;6.25;4.30;;;;;;;31.29;32.77;101211.09;5043023;28;20718;-77
2023/06/21 09:30:23;;;;;;;5.22;4.20;;;;;;;31.08;32.98;101204.31;5042874;28;20508;-76
2023/06/21 09:32:50;;;;;;;4.82;4.32;;;;;;;31.41;33.11;101205.97;5047793;28;20404;-76
2023/06/21 09:35:15;;;;;;;6.10;4.35;;;;;;;31.72;32.56;101207.41;5048609;28;20396;-75
2023/06/21 09:37:41;;;;;;;5.33;4.33;;;;;;;31.79;32.12;101200.44;5039996;28;20416;-76
2023/06/21 09:40:08;;;;;;;5.40;4.30;;;;;;;31.76;32.50;101197.47;5048694;28;20396;-75
2023/06/21 09:42:39;;;;;;;5.35;4.05;;;;;;;31.83;32.24;101208.84;5047024;28;20424;-75
2023/06/21 09:45:12;;;;;;;4.50;4.10;;;;;;;31.89;32.19;101210.41;5048370;28;20395;-75
2023/06/21 09:47:41;;;;;;;6.15;4.32;;;;;;;31.68;32.02;101206.41;5047101;28;20730;-75
2023/06/21 09:50:08;;;;;;;4.22;3.70;;;;;;;31.74;31.57;101214.22;5031924;28;20418;-76
2023/06/21 09:52:34;;;;;;;5.72;4.22;;;;;;;32.00;32.17;101222.81;5048312;28;20446;-76
2023/06/21 09:55:02;;;;;;;6.85;4.35;;;;;;;31.76;31.52;101219.41;5048885;28;20381;-75
2023/06/21 09:57:28;;;;;;;6.15;4.47;;;;;;;31.81;31.18;101222.06;5030091;28;21051;-75
2023/06/21 09:59:54;;;;;;;5.72;4.32;;;;;;;31.86;31.16;101213.75;5049236;28;20389;-74
2023/06/21 10:02:19;;;;;;;5.50;4.20;;;;;;;32.04;31.35;101212.06;5049448;28;20431;-76
2023/06/21 10:04:45;;;;;;;6.37;4.53;;;;;;;31.98;31.70;101214.06;5031781;28;20454;-76
2023/06/21 10:07:14;;;;;;;4.95;4.25;;;;;;;31.90;32.73;101209.28;5032620;28;20403;-74
2023/06/21 10:09:39;;;;;;;6.80;4.50;;;;;;;31.93;32.60;101196.91;5049644;28;20851;-79
2023/06/21 10:12:05;;;;;;;8.13;4.82;;;;;;;31.88;32.61;101202.47;5049994;28;21014;-76
2023/06/21 10:14:31;;;;;;;7.30;4.60;;;;;;;32.25;32.35;101197.94;5048853;28;20391;-76
2023/06/21 10:16:57;;;;;;;6.65;4.50;;;;;;;32.33;32.21;101200.81;5047993;28;20408;-75
2023/06/21 10:19:26;;;;;;;7.35;4.50;;;;;;;31.97;32.72;101203.41;5049918;28;20885;-76
2023/06/21 10:22:01;;;;;;;5.45;4.68;;;;;;;31.95;33.17;101195.47;5048828;28;20461;-75
2023/06/21 10:24:42;;;;;;;5.35;4.85;;;;;;;32.17;32.74;101194.00;5047843;28;20400;-76
2023/06/21 10:27:10;;;;;;;6.53;4.80;;;;;;;32.07;32.74;101202.41;5048599;28;20400;-75
2023/06/21 10:29:38;;;;;;;5.18;4.50;;;;;;;32.19;32.31;101186.28;5049148;28;20389;-74
2023/06/21 10:32:07;;;;;;;6.70;4.90;;;;;;;32.41;32.27;101188.28;5048507;28;20417;-76
2023/06/21 10:34:57;;;;;;;5.35;4.50;;;;;;;32.47;32.32;101192.56;5033195;28;20873;-77
2023/06/21 10:37:38;;;;;;;5.20;4.70;;;;;;;32.39;32.10;101187.78;5036733;28;20566;-76
2023/06/21 10:40:06;;;;;;;7.20;4.50;;;;;;;32.37;31.47;101195.50;5048686;28;20393;-76
2023/06/21 10:42:32;;;;;;;5.15;4.30;;;;;;;32.47;32.07;101192.56;5049905;28;20459;-76
2023/06/21 10:45:00;;;;;;;6.50;4.50;;;;;;;32.70;31.77;101198.97;5048846;28;20393;-77
2023/06/21 10:47:26;;;;;;;6.23;4.00;;;;;;;32.16;31.77;101208.81;5049208;28;20793;-75
2023/06/21 10:49:56;;;;;;;5.65;4.15;;;;;;;32.38;31.76;101199.91;5030589;28;20395;-76
2023/06/21 10:52:23;;;;;;;5.20;4.45;;;;;;;32.74;31.27;101193.69;5030378;28;20418;-77
2023/06/21 10:54:50;;;;;;;5.75;4.30;;;;;;;32.86;31.37;101188.47;5048451;28;20384;-75
2023/06/21 10:57:17;;;;;;;6.88;4.57;;;;;;;32.64;31.25;101188.41;5047406;28;20454;-76
2023/06/21 10:59:43;;;;;;;6.55;4.70;;;;;;;33.04;31.12;101197.63;5031657;28;20398;-76
2023/06/21 11:02:09;;;;;;;6.88;4.15;;;;;;;33.05;31.15;101190.22;5051101;28;20387;-78
2023/06/21 11:05:16;;;;;;;7.75;4.22;;;;;;;33.18;30.91;101196.81;5047952;28;20796;-76
2023/06/21 11:07:47;;;;;;;6.07;4.33;;;;;;;33.04;30.24;101183.09;5049482;28;20391;-75
2023/06/21 11:10:13;;;;;;;5.00;4.13;;;;;;;33.09;30.46;101189.28;5048545;28;20459;-76
2023/06/21 11:12:38;;;;;;;4.72;4.00;;;;;;;33.32;30.38;101192.06;5031159;28;20784;-76
2023/06/21 11:15:05;;;;;;;5.88;4.20;;;;;;;33.46;30.17;101192.81;5051097;28;20388;-77
2023/06/21 11:17:34;;;;;;;7.67;4.17;;;;;;;33.27;29.88;101189.44;5049662;28;20418;-76
2023/06/21 11:20:20;;;;;;;5.63;3.85;;;;;;;33.14;30.60;101186.44;5048886;28;20392;-76
2023/06/21 11:23:08;;;;;;;9.50;4.23;;;;;;;32.82;30.32;101181.13;5049877;28;20730;-77